Mansfield Lahm Regional Airport
KMFD : now visible

Airfield :











YOU CAN JOIN US ON...

 
LOGIN :

Register | Disclaimer

   EN    FR    IT 

 









Legend :    VFR   Marginal VFR   IFR   Intensive IFR   Very Intensive IFR
Visi :
Ceiling :
>= 8 km
>= 3000ft
5 to 8 km
1000 to 3000 ft
1500m to 5 km
500 to 1000 ft
800 to 1500m
200 to 500 ft
< 800m
< 200 ft
Symbols :   Thunderstorms  Fog  Heavy snow  Heavy precipitations  Wind > 20 kt






- Airport Elevation : 1297 ft


KMFD - Mansfield Lahm Regional

CURRENT METAR :
  • 061052Z AUTO 32004KT 10SM CLR 21/18 A2997 RMK AO2 SLP138 T02110183

EXPIRED METARs :
  • 060952Z AUTO 31006KT 10SM SCT050 21/18 A2995 RMK AO2 SLP129 T02110183
  • 060852Z AUTO 30004KT 10SM CLR 22/18 A2993 RMK AO2 SLP123 T02170178 53003

TAF KMFD
Valid from the 06 at 06:00 until the 07 at 06:00 UTC


060521Z 0606/0706 18004KT P6SM SCT100 OVC250
FM060900 30006KT P6SM SCT250
FM061600 33010KT P6SM SCT050
FM070300 02008KT P6SM SCT250
KZOB FIR / North America



MET'MAP, your aeronautical weather chart ! - Copyright ORBIFLY December 2007 - Disclaimer

ORBIFLY MET'MAP TEAM :

Programming & Development : Alexandra Zaïnal
Concept & original design : Baudouin d'Aumeries
Assistance for programming : Marc-Olivier Méhu
Technical & hardware support : Manuel Goepfert

Contact : metmap@orbifly.com




SOURCES & CREDITS :

   NOAA       Earth
Advisory